Terminal Aerodrome Forecast
Issued by NWS

Home | Current Version | Previous Version | Text Only | Print | Product List | Glossary On
Versions: 1 2 3 4 5 6 7 8 9 10 11 12 13 14 15 16 17 18 19 20 21 22 23
000
FTUS44 KMAF 232105 AAD
TAFPEQ
TAF AMD
KPEQ 232105Z 2321/2418 14025G33KT P6SM SCT070 SCT090 SCT250
      TEMPO 2321/2401 VRB30G40KT 6SM TSRA BKN050CB
     FM240200 12014KT P6SM OVC200
     FM241300 11007KT P6SM BKN250=

USA.gov is the U.S. government's official web portal to all federal, state and local government web resources and services.